Portada
METAR-TAF:

METAR-TAF

Aeropuertos :

Aeropuerto Internacional de Abu Dabi

Abu Dhabi, Emiratos Árabes Unidos

latitud: 24-26N, longitud: 054-39E, altitud: 16 m

Observación

El informe se hizo hace 58 minutos, a las 12:00 UTC
Viento 13 kt del norte-noroeste
Temperatura 34°C
Humedad 32%
Presión 1010 hPa
Visibilidad 10 km o más
Escasas nubes a una altura de 4500 ft

METAR: OMAA 041200Z 33013KT 9999 FEW045 34/15 Q1010 NOSIG

Hora: 16:58 (12:58 UTC)

Pronóstico

El informe se hizo hace 1 hora y 58 minutos, a las 11:00 UTC
Pronóstico válido del 04 a las 12 UTC al 05 a las 18 UTC
Viento 12 kt del norte-noroeste
Visibilidad: 8000 m
Evolucionando progresivamente
del 04 a las 16 UTC al 04 a las 18 UTC
Viento 6 kt del este-noreste
Evolucionando progresivamente
del 04 a las 23 UTC al 05 a las 01 UTC
Viento 12 kt del norte-noroeste

TAF: OMAA 041100Z 0412/0518 33012KT 8000 NSC BECMG 0416/0418 06006KT BECMG 0423/0501 33012KT

Observaciones y pronósticos meteorológicos de más de 4000 aeropuertos (mensajes METAR y TAF).

Los puntos amarillos y rojos representan las estaciones disponibles.

Ponga el ratón en el punto deseado para ver el nombre de la estación.

Haga clic para ver las observaciones y los pronósticos meteorológicos.

Para cambiar el mapa : haga clic en los botones verdes con una cruz de color negro para hacer un zoom, en el botón verde con un guión para alejar o en las flechas verdes para mapas adyacentes.


METAR-TAF: